createdAt,value
2018-10-16T00:01:32.150Z,14.93
2018-10-16T00:04:00.978Z,14.18
2018-10-16T00:06:29.798Z,14.47
2018-10-16T00:08:58.594Z,14.70
2018-10-16T00:11:27.390Z,14.03
2018-10-16T00:13:56.446Z,14.30
2018-10-16T00:16:25.222Z,14.18
2018-10-16T00:18:54.120Z,14.10
2018-10-16T00:21:22.942Z,14.10
2018-10-16T00:23:51.753Z,15.68
2018-10-16T00:26:20.874Z,15.88
2018-10-16T00:28:49.662Z,16.37
2018-10-16T00:31:18.458Z,16.57
2018-10-16T00:33:47.741Z,16.10
2018-10-16T00:36:16.530Z,15.40
2018-10-16T00:38:45.285Z,16.12
2018-10-16T00:41:17.414Z,17.85
2018-10-16T00:43:46.465Z,16.62
2018-10-16T00:46:15.238Z,17.52
2018-10-16T00:48:44.961Z,17.02
2018-10-16T00:51:14.126Z,15.80
2018-10-16T00:53:42.886Z,16.17
2018-10-16T00:56:11.722Z,16.17
2018-10-16T00:58:40.813Z,17.45
2018-10-16T01:01:09.610Z,16.77
2018-10-16T01:03:38.733Z,16.35
2018-10-16T01:06:07.486Z,15.38
2018-10-16T01:08:36.274Z,15.38
2018-10-16T01:11:09.302Z,15.85
2018-10-16T01:13:38.010Z,13.88
2018-10-16T01:16:07.166Z,14.25
2018-10-16T01:18:35.952Z,14.63
2018-10-16T01:21:05.186Z,15.23
2018-10-16T01:23:34.082Z,13.95
2018-10-16T01:26:03.013Z,13.43
2018-10-16T01:28:31.710Z,13.45
2018-10-16T01:31:00.617Z,13.43
2018-10-16T01:33:29.489Z,14.05
2018-10-16T01:35:58.417Z,13.27
2018-10-16T01:38:27.129Z,14.33
2018-10-16T01:40:55.941Z,14.00
2018-10-16T01:43:24.701Z,14.93
2018-10-16T01:45:53.493Z,14.75
2018-10-16T01:48:22.537Z,13.95
2018-10-16T01:51:06.218Z,15.23
2018-10-16T01:53:34.969Z,14.25
2018-10-16T01:56:04.276Z,13.30
2018-10-16T01:58:32.992Z,13.98
2018-10-16T02:01:02.185Z,15.05
2018-10-16T02:03:30.920Z,14.90
2018-10-16T02:05:59.697Z,13.93
2018-10-16T02:08:28.465Z,13.68
2018-10-16T02:10:57.209Z,14.25
2018-10-16T02:13:26.201Z,13.50
2018-10-16T02:15:55.044Z,13.55
2018-10-16T02:18:24.145Z,14.23
2018-10-16T02:20:53.184Z,13.72
2018-10-16T02:23:21.909Z,14.18
2018-10-16T02:25:50.653Z,14.20
2018-10-16T02:28:19.772Z,13.65
2018-10-16T02:30:48.492Z,14.18
2018-10-16T02:33:17.484Z,13.08
2018-10-16T02:35:46.242Z,14.47
2018-10-16T02:38:14.965Z,13.98
2018-10-16T02:40:43.801Z,14.63
2018-10-16T02:43:12.584Z,14.20
2018-10-16T02:45:41.601Z,13.38
2018-10-16T02:48:10.961Z,14.23
2018-10-16T02:50:39.954Z,14.68
2018-10-16T02:53:08.736Z,14.03
2018-10-16T02:55:38.187Z,13.50
2018-10-16T02:58:07.182Z,13.68
2018-10-16T03:00:35.945Z,13.68
2018-10-16T03:03:05.108Z,14.53
2018-10-16T03:05:34.205Z,13.95
2018-10-16T03:08:03.341Z,13.78
2018-10-16T03:10:32.057Z,13.93
2018-10-16T03:13:00.814Z,14.73
2018-10-16T03:15:29.887Z,16.32
2018-10-16T03:17:58.624Z,13.60
2018-10-16T03:20:27.741Z,14.78
2018-10-16T03:22:56.696Z,13.72
2018-10-16T03:25:25.884Z,13.65
2018-10-16T03:27:54.676Z,13.85
2018-10-16T03:30:23.480Z,16.25
2018-10-16T03:32:52.653Z,14.68
2018-10-16T03:35:21.392Z,13.53
2018-10-16T03:37:50.712Z,13.83
2018-10-16T03:40:19.468Z,14.05
2018-10-16T03:42:48.272Z,14.65
2018-10-16T03:45:16.980Z,13.95
2018-10-16T03:47:46.076Z,14.23
2018-10-16T03:50:15.418Z,14.93
2018-10-16T03:52:44.188Z,14.70
2018-10-16T03:55:12.944Z,14.50
2018-10-16T03:57:41.678Z,14.68
2018-10-16T04:00:11.412Z,14.83
2018-10-16T04:02:40.348Z,15.83
2018-10-16T04:05:09.132Z,15.20
2018-10-16T04:07:38.152Z,15.75
2018-10-16T04:10:07.380Z,14.98
2018-10-16T04:12:36.375Z,15.63
2018-10-16T04:15:06.321Z,14.30
2018-10-16T04:17:35.144Z,14.98
2018-10-16T04:20:04.419Z,15.00
2018-10-16T04:22:33.141Z,15.13
2018-10-16T04:25:02.048Z,14.55
2018-10-16T04:27:30.863Z,14.63
2018-10-16T04:29:59.879Z,15.85
2018-10-16T04:32:28.858Z,16.00
2018-10-16T04:34:57.667Z,15.03
2018-10-16T04:37:26.695Z,15.90
2018-10-16T04:39:55.827Z,15.53
2018-10-16T04:42:24.574Z,16.57
2018-10-16T04:45:09.003Z,15.32
2018-10-16T04:47:38.559Z,15.23
2018-10-16T04:50:07.484Z,15.93
2018-10-16T04:52:37.151Z,15.48
2018-10-16T04:55:06.192Z,16.00
2018-10-16T04:57:34.982Z,15.63
2018-10-16T05:00:04.183Z,16.57
2018-10-16T05:02:33.054Z,16.27
2018-10-16T05:05:02.192Z,15.58
2018-10-16T05:07:30.991Z,16.37
2018-10-16T05:09:59.915Z,15.83
2018-10-16T05:12:28.955Z,16.30
2018-10-16T05:14:58.142Z,15.25
2018-10-16T05:17:27.741Z,15.40
2018-10-16T05:20:07.743Z,16.25
2018-10-16T05:22:40.742Z,16.93
2018-10-16T05:25:09.431Z,17.00
2018-10-16T05:27:38.502Z,16.52
2018-10-16T13:00:33.509Z,11.60
2018-10-16T13:03:02.175Z,12.30
2018-10-16T13:05:31.064Z,12.75
2018-10-16T13:07:59.646Z,11.38
2018-10-16T13:10:28.432Z,13.03
2018-10-16T13:12:57.020Z,12.43
2018-10-16T13:15:25.560Z,11.85
2018-10-16T13:17:54.120Z,12.28
2018-10-16T13:20:22.732Z,12.53
2018-10-16T13:22:51.697Z,11.50
2018-10-16T13:25:22.644Z,13.08
2018-10-16T13:30:44.628Z,13.50
2018-10-16T13:33:13.660Z,13.15
2018-10-16T13:35:42.243Z,13.95
2018-10-16T13:38:36.468Z,14.25
2018-10-16T13:44:12.997Z,15.63
2018-10-16T13:46:46.960Z,13.45
2018-10-16T13:52:02.801Z,13.78
2018-10-16T13:54:31.607Z,13.32
2018-10-16T13:57:00.633Z,13.68
2018-10-16T13:59:29.211Z,13.45
2018-10-16T14:02:03.973Z,13.90
2018-10-16T14:10:20.108Z,13.88
2018-10-16T14:12:48.888Z,13.65
2018-10-16T14:15:17.889Z,15.18
2018-10-16T14:17:46.415Z,15.55
2018-10-16T14:20:15.043Z,15.50
2018-10-16T14:22:44.299Z,14.90
2018-10-16T14:25:14.098Z,15.60
2018-10-16T14:27:43.099Z,16.93
2018-10-16T14:30:13.852Z,17.98
2018-10-16T14:32:43.028Z,18.02
2018-10-16T14:35:13.408Z,15.68
2018-10-16T14:37:42.261Z,16.73
2018-10-16T14:40:12.945Z,18.27
2018-10-16T14:42:41.624Z,18.07
2018-10-16T14:45:11.074Z,17.80
2018-10-16T14:47:39.989Z,16.80
2018-10-16T14:50:13.133Z,16.97
2018-10-16T14:52:42.709Z,16.48
2018-10-16T14:55:11.317Z,17.48
2018-10-16T14:57:39.940Z,17.75
2018-10-16T15:00:10.185Z,16.87
2018-10-16T15:02:38.868Z,16.82
2018-10-16T15:05:08.464Z,16.20
2018-10-16T15:07:37.157Z,17.98
2018-10-16T15:10:06.929Z,17.27
2018-10-16T15:12:35.548Z,16.97
2018-10-16T15:15:04.121Z,16.42
2018-10-16T15:17:32.591Z,16.20
2018-10-16T15:20:01.456Z,16.15
2018-10-16T15:22:29.916Z,16.97
2018-10-16T15:24:58.520Z,17.27
2018-10-16T15:27:27.008Z,16.27
2018-10-16T15:29:55.763Z,17.73
2018-10-16T15:32:24.768Z,17.87
2018-10-16T15:34:53.494Z,18.02
2018-10-16T15:37:22.124Z,16.75
2018-10-16T15:39:51.263Z,18.32
2018-10-16T15:42:20.192Z,20.70
2018-10-16T15:44:48.852Z,18.40
2018-10-16T15:47:17.728Z,19.90
2018-10-16T15:49:46.588Z,18.55
2018-10-16T15:52:15.382Z,18.42
2018-10-16T15:54:44.244Z,19.20
2018-10-16T15:57:13.187Z,19.10
2018-10-16T15:59:41.804Z,20.05
2018-10-16T16:02:10.764Z,19.25
2018-10-16T16:04:39.648Z,18.77
2018-10-16T16:07:08.334Z,22.00
2018-10-16T16:09:37.340Z,21.87
2018-10-16T16:12:32.421Z,26.17
2018-10-16T16:37:17.556Z,32.10
2018-10-16T17:07:03.229Z,32.50
2018-10-16T17:09:31.700Z,31.68
2018-10-16T17:12:00.259Z,31.10
2018-10-16T17:14:28.893Z,30.37
2018-10-16T17:16:57.369Z,31.90
2018-10-16T17:19:26.365Z,31.73
2018-10-16T17:21:54.947Z,32.35
2018-10-16T17:24:23.469Z,31.33
2018-10-16T17:26:52.193Z,30.60
2018-10-16T17:29:41.375Z,30.07
2018-10-16T17:32:10.055Z,30.95
2018-10-16T17:34:38.975Z,31.70
2018-10-16T17:37:07.623Z,31.87
2018-10-16T17:39:36.243Z,30.30
2018-10-16T17:42:05.387Z,29.72
2018-10-16T17:44:33.879Z,31.45
2018-10-16T17:47:02.418Z,28.67
2018-10-16T17:49:31.214Z,29.72
2018-10-16T17:51:59.669Z,25.15
2018-10-16T17:57:59.553Z,25.55
2018-10-16T18:00:27.991Z,27.67
2018-10-16T18:02:56.795Z,28.00
2018-10-16T18:05:25.584Z,28.02
2018-10-16T18:07:54.488Z,29.32
2018-10-16T18:10:22.966Z,30.62
2018-10-16T18:12:51.908Z,29.80
2018-10-16T18:15:20.456Z,31.20
2018-10-16T18:17:49.075Z,27.70
2018-10-16T18:20:18.060Z,28.20
2018-10-16T18:22:46.844Z,27.13
2018-10-16T18:25:16.160Z,27.52
2018-10-16T18:27:45.360Z,28.35
2018-10-16T18:30:13.963Z,28.20
2018-10-16T18:32:42.499Z,28.12
2018-10-16T18:35:11.426Z,29.23
2018-10-16T18:37:40.808Z,27.48
2018-10-16T18:40:10.333Z,29.77
2018-10-16T18:42:39.049Z,27.10
2018-10-16T18:45:08.746Z,27.80
2018-10-16T18:47:37.147Z,27.27
2018-10-16T18:50:06.892Z,27.62
2018-10-16T18:52:35.424Z,26.40
2018-10-16T18:55:04.079Z,25.77
2018-10-16T18:57:32.619Z,25.32
2018-10-16T19:00:15.047Z,23.50
2018-10-16T19:02:57.140Z,22.42
2018-10-16T19:05:29.173Z,22.53
2018-10-16T19:07:58.045Z,22.10
2018-10-16T19:10:33.331Z,22.55
2018-10-16T19:13:03.915Z,21.75
2018-10-16T19:15:32.402Z,21.57
2018-10-16T19:18:00.918Z,22.35
2018-10-16T19:20:29.815Z,22.80
2018-10-16T19:23:02.807Z,21.40
2018-10-16T19:25:33.171Z,24.07
2018-10-16T19:28:02.831Z,22.90
2018-10-16T19:30:32.342Z,22.77
2018-10-16T19:33:03.281Z,23.40
2018-10-16T19:35:32.790Z,23.47
2018-10-16T19:38:02.939Z,23.32
2018-10-16T19:40:31.767Z,22.90
2018-10-16T19:43:01.069Z,23.55
2018-10-16T19:45:29.782Z,28.15
2018-10-16T19:47:58.564Z,25.48
2018-10-16T19:50:27.070Z,26.40
2018-10-16T19:52:55.545Z,28.27
2018-10-16T19:55:24.002Z,27.65
2018-10-16T19:57:52.594Z,27.07
2018-10-16T20:00:21.478Z,25.85
2018-10-16T20:02:49.984Z,27.13
2018-10-16T20:05:18.452Z,24.40
2018-10-16T20:07:47.256Z,25.57
2018-10-16T20:10:15.769Z,25.02
2018-10-16T20:12:44.264Z,26.02
2018-10-16T20:15:13.220Z,25.68
2018-10-16T20:17:41.696Z,25.12
2018-10-16T20:20:11.431Z,25.17
2018-10-16T20:22:40.016Z,22.25
2018-10-16T20:25:09.339Z,22.55
2018-10-16T20:27:37.958Z,23.02
2018-10-16T20:30:07.740Z,22.75
2018-10-16T20:32:36.703Z,22.37
2018-10-16T20:35:06.368Z,22.65
2018-10-16T20:37:35.208Z,22.00
2018-10-16T20:40:03.894Z,22.13
2018-10-16T20:42:32.612Z,22.35
2018-10-16T20:45:01.309Z,22.62
2018-10-16T20:47:30.099Z,22.50
2018-10-16T20:49:59.259Z,23.00
2018-10-16T20:52:27.983Z,22.75
2018-10-16T20:54:56.654Z,21.50
2018-10-16T20:57:25.293Z,22.60
2018-10-16T20:59:55.000Z,22.13
2018-10-16T21:02:23.529Z,20.55
2018-10-16T21:05:07.303Z,22.52
2018-10-16T21:07:35.776Z,22.48
2018-10-16T21:10:05.533Z,22.62
2018-10-16T21:12:34.528Z,22.65
2018-10-16T21:15:03.201Z,23.15
2018-10-16T21:17:31.965Z,22.07
2018-10-16T21:20:00.933Z,23.42
2018-10-16T21:22:29.557Z,21.73
2018-10-16T21:24:58.271Z,22.20
2018-10-16T21:27:26.943Z,22.13
2018-10-16T21:29:55.677Z,23.55
2018-10-16T21:32:24.625Z,22.58
2018-10-16T21:34:53.290Z,23.95
2018-10-16T21:37:21.855Z,22.15
2018-10-16T21:39:50.437Z,24.27
2018-10-16T21:42:18.945Z,23.32
2018-10-16T21:44:47.477Z,22.30
2018-10-16T21:47:15.970Z,22.50
2018-10-16T21:49:44.541Z,22.25
2018-10-16T21:52:13.353Z,22.80
2018-10-16T21:54:42.237Z,23.60
2018-10-16T21:57:11.283Z,24.07
2018-10-16T21:59:39.869Z,23.30
2018-10-16T22:02:13.796Z,23.40
2018-10-16T22:04:42.669Z,23.52
2018-10-16T22:07:11.361Z,23.75
2018-10-16T22:09:39.788Z,23.55
2018-10-16T22:12:08.281Z,23.50
2018-10-16T22:14:36.908Z,22.58
2018-10-16T22:17:05.975Z,24.37
2018-10-16T22:19:34.533Z,24.20
2018-10-16T22:22:02.998Z,24.23
2018-10-16T22:24:31.511Z,25.10
2018-10-16T22:27:00.277Z,24.07
2018-10-16T22:29:28.788Z,22.60
2018-10-16T22:31:57.672Z,23.90
2018-10-16T22:34:26.267Z,23.83
2018-10-16T22:36:54.879Z,23.00
2018-10-16T22:39:23.504Z,24.37
2018-10-16T22:41:52.085Z,24.60
2018-10-16T22:44:20.980Z,24.67
2018-10-16T22:46:49.460Z,24.02
2018-10-16T22:49:18.156Z,24.47
2018-10-16T22:51:46.716Z,24.55
2018-10-16T22:54:15.316Z,23.85
2018-10-16T22:56:43.908Z,24.30
2018-10-16T22:59:12.626Z,24.72
2018-10-16T23:01:41.216Z,24.18
2018-10-16T23:04:09.800Z,24.12
2018-10-16T23:06:38.429Z,25.30
2018-10-16T23:09:09.092Z,24.35
2018-10-16T23:11:37.718Z,24.77
2018-10-16T23:14:06.508Z,24.85
2018-10-16T23:16:34.984Z,24.87
2018-10-16T23:19:03.629Z,23.85
2018-10-16T23:21:32.068Z,23.73
2018-10-16T23:24:00.543Z,24.50
2018-10-16T23:26:28.988Z,24.45
2018-10-16T23:28:57.503Z,24.55
2018-10-16T23:31:26.352Z,24.12
2018-10-16T23:33:55.164Z,24.67
2018-10-16T23:36:23.728Z,24.15
2018-10-16T23:38:52.179Z,24.52
2018-10-16T23:41:20.928Z,25.52
2018-10-16T23:43:49.684Z,25.10
2018-10-16T23:46:18.676Z,24.75
2018-10-16T23:48:47.432Z,24.47
2018-10-16T23:51:16.072Z,24.45
2018-10-16T23:53:44.640Z,26.05
2018-10-16T23:56:13.359Z,25.32
2018-10-16T23:58:42.007Z,24.77
